sensor_id;sensor_type;location;lat;lon;timestamp;pressure;altitude;pressure_sealevel;temperature;humidity
75543;BME280;64129;53.508;10.476;2022-10-18T00:01:47;101984.19;;;15.22;83.68
75543;BME280;64129;53.508;10.476;2022-10-18T00:04:12;101987.94;;;15.15;84.14
75543;BME280;64129;53.508;10.476;2022-10-18T00:06:37;101998.84;;;15.06;84.03
75543;BME280;64129;53.508;10.476;2022-10-18T00:09:03;101992.41;;;15.15;82.75
75543;BME280;64129;53.508;10.476;2022-10-18T00:11:28;101987.22;;;15.07;84.66
75543;BME280;64129;53.508;10.476;2022-10-18T00:13:55;101995.13;;;15.13;83.87
75543;BME280;64129;53.508;10.476;2022-10-18T00:16:21;102001.16;;;15.21;82.94
75543;BME280;64129;53.508;10.476;2022-10-18T00:18:46;102004.97;;;15.11;83.37
75543;BME280;64129;53.508;10.476;2022-10-18T00:21:17;102001.53;;;15.06;83.99
75543;BME280;64129;53.508;10.476;2022-10-18T00:23:45;102003.56;;;14.95;83.85
75543;BME280;64129;53.508;10.476;2022-10-18T00:26:11;101997.94;;;15.07;83.88
75543;BME280;64129;53.508;10.476;2022-10-18T00:28:38;101996.03;;;15.12;83.06
75543;BME280;64129;53.508;10.476;2022-10-18T00:31:15;101998.13;;;14.98;84.22
75543;BME280;64129;53.508;10.476;2022-10-18T00:33:44;101998.06;;;15.01;83.30
75543;BME280;64129;53.508;10.476;2022-10-18T00:36:11;101996.22;;;15.05;83.55
75543;BME280;64129;53.508;10.476;2022-10-18T00:38:37;102006.13;;;15.00;83.31
75543;BME280;64129;53.508;10.476;2022-10-18T00:41:04;102004.28;;;15.03;83.32
75543;BME280;64129;53.508;10.476;2022-10-18T00:43:30;102007.09;;;14.97;83.47
75543;BME280;64129;53.508;10.476;2022-10-18T00:45:56;102006.94;;;15.03;82.00
75543;BME280;64129;53.508;10.476;2022-10-18T00:48:21;102006.19;;;14.96;83.15
75543;BME280;64129;53.508;10.476;2022-10-18T00:50:49;102012.66;;;14.85;82.64
75543;BME280;64129;53.508;10.476;2022-10-18T00:53:18;102016.31;;;14.81;82.78
75543;BME280;64129;53.508;10.476;2022-10-18T00:55:44;102015.38;;;14.83;83.27
75543;BME280;64129;53.508;10.476;2022-10-18T00:58:12;102019.84;;;14.83;83.02
75543;BME280;64129;53.508;10.476;2022-10-18T01:00:38;102019.91;;;14.80;83.32
75543;BME280;64129;53.508;10.476;2022-10-18T01:03:06;102008.25;;;14.82;82.88
75543;BME280;64129;53.508;10.476;2022-10-18T01:05:32;102012.09;;;14.71;82.82
75543;BME280;64129;53.508;10.476;2022-10-18T01:08:24;102002.31;;;14.70;82.88
75543;BME280;64129;53.508;10.476;2022-10-18T01:14:20;102015.81;;;14.63;83.45
75543;BME280;64129;53.508;10.476;2022-10-18T01:16:58;102007.78;;;14.63;83.10
75543;BME280;64129;53.508;10.476;2022-10-18T01:22:09;102014.91;;;14.63;82.95
75543;BME280;64129;53.508;10.476;2022-10-18T01:27:44;102013.06;;;14.66;82.65
75543;BME280;64129;53.508;10.476;2022-10-18T01:32:51;102010.69;;;14.50;83.14
75543;BME280;64129;53.508;10.476;2022-10-18T01:35:26;102018.63;;;14.54;83.01
75543;BME280;64129;53.508;10.476;2022-10-18T01:37:55;102017.91;;;14.46;83.00
75543;BME280;64129;53.508;10.476;2022-10-18T01:40:23;102016.16;;;14.42;83.80
75543;BME280;64129;53.508;10.476;2022-10-18T01:42:49;102021.28;;;14.57;82.81
75543;BME280;64129;53.508;10.476;2022-10-18T01:45:15;102017.84;;;14.49;83.91
75543;BME280;64129;53.508;10.476;2022-10-18T01:47:43;102016.94;;;14.50;83.27
75543;BME280;64129;53.508;10.476;2022-10-18T01:50:10;102021.66;;;14.34;84.94
75543;BME280;64129;53.508;10.476;2022-10-18T01:52:48;102014.38;;;14.44;83.37
75543;BME280;64129;53.508;10.476;2022-10-18T01:55:14;102017.00;;;14.47;83.95
75543;BME280;64129;53.508;10.476;2022-10-18T01:57:44;102017.09;;;14.41;83.48
75543;BME280;64129;53.508;10.476;2022-10-18T02:00:18;102025.97;;;14.43;83.33
75543;BME280;64129;53.508;10.476;2022-10-18T02:02:53;102024.19;;;14.42;82.97
75543;BME280;64129;53.508;10.476;2022-10-18T02:08:29;102034.28;;;14.26;83.27
75543;BME280;64129;53.508;10.476;2022-10-18T02:11:08;102038.00;;;14.16;84.40
75543;BME280;64129;53.508;10.476;2022-10-18T02:16:20;102043.25;;;14.24;83.78
75543;BME280;64129;53.508;10.476;2022-10-18T02:18:50;102034.31;;;14.25;83.19
75543;BME280;64129;53.508;10.476;2022-10-18T02:21:18;102032.50;;;14.27;83.08
75543;BME280;64129;53.508;10.476;2022-10-18T02:23:45;102027.38;;;14.13;83.47
75543;BME280;64129;53.508;10.476;2022-10-18T02:26:13;102024.75;;;14.12;83.97
75543;BME280;64129;53.508;10.476;2022-10-18T02:28:39;102023.03;;;14.08;83.36
75543;BME280;64129;53.508;10.476;2022-10-18T02:31:20;102023.91;;;14.08;82.92
75543;BME280;64129;53.508;10.476;2022-10-18T02:36:25;102022.47;;;13.90;82.45
75543;BME280;64129;53.508;10.476;2022-10-18T02:38:56;102028.63;;;13.94;82.27
75543;BME280;64129;53.508;10.476;2022-10-18T02:41:25;102022.44;;;13.92;82.01
75543;BME280;64129;53.508;10.476;2022-10-18T02:43:51;102019.84;;;13.86;81.73
75543;BME280;64129;53.508;10.476;2022-10-18T02:46:17;102020.78;;;13.83;81.81
75543;BME280;64129;53.508;10.476;2022-10-18T02:48:42;102017.31;;;13.77;81.73
75543;BME280;64129;53.508;10.476;2022-10-18T02:51:08;102009.34;;;13.75;81.36
75543;BME280;64129;53.508;10.476;2022-10-18T02:53:34;102010.25;;;13.74;81.24
75543;BME280;64129;53.508;10.476;2022-10-18T02:55:59;102014.09;;;13.58;81.64
75543;BME280;64129;53.508;10.476;2022-10-18T02:58:24;102013.94;;;13.67;82.17
75543;BME280;64129;53.508;10.476;2022-10-18T03:00:50;102012.28;;;13.60;81.96
75543;BME280;64129;53.508;10.476;2022-10-18T03:03:15;102010.41;;;13.65;81.76
75543;BME280;64129;53.508;10.476;2022-10-18T03:05:40;102010.38;;;13.66;81.97
75543;BME280;64129;53.508;10.476;2022-10-18T03:08:06;102007.03;;;13.54;82.57
75543;BME280;64129;53.508;10.476;2022-10-18T03:10:31;102009.69;;;13.54;82.24
75543;BME280;64129;53.508;10.476;2022-10-18T03:12:56;102006.13;;;13.52;82.09
75543;BME280;64129;53.508;10.476;2022-10-18T03:15:22;102008.00;;;13.47;81.85
75543;BME280;64129;53.508;10.476;2022-10-18T03:17:47;102008.06;;;13.43;82.22
75543;BME280;64129;53.508;10.476;2022-10-18T03:20:12;102008.94;;;13.44;83.13
75543;BME280;64129;53.508;10.476;2022-10-18T03:22:38;102006.25;;;13.46;83.19
75543;BME280;64129;53.508;10.476;2022-10-18T03:25:03;102015.13;;;13.46;82.54
75543;BME280;64129;53.508;10.476;2022-10-18T03:27:29;102009.88;;;13.41;82.71
75543;BME280;64129;53.508;10.476;2022-10-18T03:29:54;101998.34;;;13.38;82.19
75543;BME280;64129;53.508;10.476;2022-10-18T03:32:20;102005.44;;;13.40;81.93
75543;BME280;64129;53.508;10.476;2022-10-18T03:34:45;101998.44;;;13.32;82.25
75543;BME280;64129;53.508;10.476;2022-10-18T03:37:10;102004.72;;;13.29;82.76
75543;BME280;64129;53.508;10.476;2022-10-18T03:39:36;102001.13;;;13.30;83.44
75543;BME280;64129;53.508;10.476;2022-10-18T03:42:01;101990.28;;;13.42;83.04
75543;BME280;64129;53.508;10.476;2022-10-18T03:44:26;101993.88;;;13.40;83.66
75543;BME280;64129;53.508;10.476;2022-10-18T03:46:52;101992.03;;;13.43;83.64
75543;BME280;64129;53.508;10.476;2022-10-18T03:49:17;101985.78;;;13.45;84.14
75543;BME280;64129;53.508;10.476;2022-10-18T03:51:42;101993.72;;;13.49;83.88
75543;BME280;64129;53.508;10.476;2022-10-18T03:54:08;101990.31;;;13.39;84.15
75543;BME280;64129;53.508;10.476;2022-10-18T03:56:33;101992.13;;;13.37;83.97
75543;BME280;64129;53.508;10.476;2022-10-18T03:58:58;101990.22;;;13.46;83.27
75543;BME280;64129;53.508;10.476;2022-10-18T04:01:24;101989.31;;;13.47;83.98
75543;BME280;64129;53.508;10.476;2022-10-18T04:03:49;101992.03;;;13.43;83.61
75543;BME280;64129;53.508;10.476;2022-10-18T04:06:14;101993.94;;;13.35;83.53
75543;BME280;64129;53.508;10.476;2022-10-18T04:08:40;101993.91;;;13.38;83.67
75543;BME280;64129;53.508;10.476;2022-10-18T04:11:06;101996.72;;;13.29;83.40
75543;BME280;64129;53.508;10.476;2022-10-18T04:13:33;101994.91;;;13.31;83.34
75543;BME280;64129;53.508;10.476;2022-10-18T04:15:59;101993.16;;;13.29;83.00
75543;BME280;64129;53.508;10.476;2022-10-18T04:18:24;101995.81;;;13.30;83.02
75543;BME280;64129;53.508;10.476;2022-10-18T04:20:50;101997.75;;;13.19;83.64
75543;BME280;64129;53.508;10.476;2022-10-18T04:23:15;101992.41;;;13.19;83.39
75543;BME280;64129;53.508;10.476;2022-10-18T04:25:40;101988.84;;;13.20;84.37
75543;BME280;64129;53.508;10.476;2022-10-18T04:28:06;101986.09;;;13.26;83.75
75543;BME280;64129;53.508;10.476;2022-10-18T04:30:31;101981.59;;;13.30;83.64
75543;BME280;64129;53.508;10.476;2022-10-18T04:32:56;101974.41;;;13.33;83.92
75543;BME280;64129;53.508;10.476;2022-10-18T04:35:22;101977.97;;;13.32;83.78
75543;BME280;64129;53.508;10.476;2022-10-18T04:37:50;101982.53;;;13.26;84.44
75543;BME280;64129;53.508;10.476;2022-10-18T04:40:15;101984.38;;;13.22;84.78
75543;BME280;64129;53.508;10.476;2022-10-18T04:42:40;101972.75;;;13.26;84.03
75543;BME280;64129;53.508;10.476;2022-10-18T04:45:06;101978.03;;;13.29;84.04
75543;BME280;64129;53.508;10.476;2022-10-18T04:47:33;101972.66;;;13.32;83.60
75543;BME280;64129;53.508;10.476;2022-10-18T04:49:58;101977.94;;;13.35;84.02
75543;BME280;64129;53.508;10.476;2022-10-18T04:52:23;101968.22;;;13.31;83.83
75543;BME280;64129;53.508;10.476;2022-10-18T04:54:49;101979.81;;;13.30;84.14
75543;BME280;64129;53.508;10.476;2022-10-18T04:57:14;101971.94;;;13.21;84.44
75543;BME280;64129;53.508;10.476;2022-10-18T04:59:39;101975.59;;;13.11;84.65
75543;BME280;64129;53.508;10.476;2022-10-18T05:02:05;101979.97;;;13.15;84.07
75543;BME280;64129;53.508;10.476;2022-10-18T05:04:30;101980.00;;;13.12;83.86
75543;BME280;64129;53.508;10.476;2022-10-18T05:06:55;101983.50;;;13.20;83.56
75543;BME280;64129;53.508;10.476;2022-10-18T05:09:21;101988.00;;;13.12;83.52
75543;BME280;64129;53.508;10.476;2022-10-18T05:11:48;101988.09;;;13.06;83.21
75543;BME280;64129;53.508;10.476;2022-10-18T05:14:14;101987.19;;;13.07;83.48
75543;BME280;64129;53.508;10.476;2022-10-18T05:16:39;101981.81;;;13.10;83.28
75543;BME280;64129;53.508;10.476;2022-10-18T05:19:05;101981.03;;;13.03;82.81
75543;BME280;64129;53.508;10.476;2022-10-18T05:21:30;101975.03;;;12.88;85.87
75543;BME280;64129;53.508;10.476;2022-10-18T05:23:56;101975.09;;;12.85;86.29
75543;BME280;64129;53.508;10.476;2022-10-18T05:26:21;101971.47;;;12.89;86.36
75543;BME280;64129;53.508;10.476;2022-10-18T05:28:48;101970.59;;;12.87;86.74
75543;BME280;64129;53.508;10.476;2022-10-18T05:31:13;101972.34;;;12.89;87.07
75543;BME280;64129;53.508;10.476;2022-10-18T05:33:39;101976.66;;;12.99;86.58
75543;BME280;64129;53.508;10.476;2022-10-18T05:36:04;101982.91;;;12.97;86.36
75543;BME280;64129;53.508;10.476;2022-10-18T05:38:30;101987.34;;;12.98;87.21
75543;BME280;64129;53.508;10.476;2022-10-18T05:40:56;101988.09;;;13.06;86.81
75543;BME280;64129;53.508;10.476;2022-10-18T05:43:21;101987.19;;;13.07;87.10
75543;BME280;64129;53.508;10.476;2022-10-18T05:45:50;101988.06;;;13.09;86.83
75543;BME280;64129;53.508;10.476;2022-10-18T05:48:16;101988.84;;;13.20;85.34
75543;BME280;64129;53.508;10.476;2022-10-18T05:50:42;101991.53;;;13.19;86.19
75543;BME280;64129;53.508;10.476;2022-10-18T05:53:08;101987.09;;;13.19;86.21
75543;BME280;64129;53.508;10.476;2022-10-18T05:55:33;101994.13;;;13.23;85.19
75543;BME280;64129;53.508;10.476;2022-10-18T05:57:59;101994.09;;;13.26;84.94
75543;BME280;64129;53.508;10.476;2022-10-18T06:00:24;101987.03;;;13.22;85.37
75543;BME280;64129;53.508;10.476;2022-10-18T06:02:49;101995.06;;;13.16;85.19
75543;BME280;64129;53.508;10.476;2022-10-18T06:05:15;102000.38;;;13.22;84.82
75543;BME280;64129;53.508;10.476;2022-10-18T06:07:40;102004.88;;;13.17;84.83
75543;BME280;64129;53.508;10.476;2022-10-18T06:10:06;101998.63;;;13.20;84.89
75543;BME280;64129;53.508;10.476;2022-10-18T06:12:31;102000.34;;;13.25;85.11
75543;BME280;64129;53.508;10.476;2022-10-18T06:14:56;102006.47;;;13.30;84.98
75543;BME280;64129;53.508;10.476;2022-10-18T06:17:22;102006.53;;;13.27;84.71
75543;BME280;64129;53.508;10.476;2022-10-18T06:19:47;101997.63;;;13.28;84.97
75543;BME280;64129;53.508;10.476;2022-10-18T06:22:13;101993.19;;;13.27;84.71
75543;BME280;64129;53.508;10.476;2022-10-18T06:24:38;102007.34;;;13.32;83.83
75543;BME280;64129;53.508;10.476;2022-10-18T06:27:03;102013.78;;;13.13;87.33
75543;BME280;64129;53.508;10.476;2022-10-18T06:29:34;102005.56;;;13.33;84.15
75543;BME280;64129;53.508;10.476;2022-10-18T06:31:59;102001.28;;;13.21;86.51
75543;BME280;64129;53.508;10.476;2022-10-18T06:34:25;102005.69;;;13.24;85.91
75543;BME280;64129;53.508;10.476;2022-10-18T06:36:50;102006.63;;;13.18;87.58
75543;BME280;64129;53.508;10.476;2022-10-18T06:39:15;102004.84;;;13.20;86.87
75543;BME280;64129;53.508;10.476;2022-10-18T06:41:41;102004.84;;;13.20;86.58
75543;BME280;64129;53.508;10.476;2022-10-18T06:44:17;102005.50;;;13.36;87.07
75543;BME280;64129;53.508;10.476;2022-10-18T06:46:44;101997.47;;;13.37;86.99
75543;BME280;64129;53.508;10.476;2022-10-18T06:49:10;102000.31;;;13.27;87.36
75543;BME280;64129;53.508;10.476;2022-10-18T06:51:36;102002.84;;;13.36;87.13
75543;BME280;64129;53.508;10.476;2022-10-18T06:54:02;102009.94;;;13.37;87.36
75543;BME280;64129;53.508;10.476;2022-10-18T06:56:27;102003.66;;;13.39;87.55
75543;BME280;64129;53.508;10.476;2022-10-18T06:58:53;102009.97;;;13.35;85.69
75543;BME280;64129;53.508;10.476;2022-10-18T07:01:19;102008.16;;;13.37;86.65
75543;BME280;64129;53.508;10.476;2022-10-18T07:03:46;102015.28;;;13.35;86.59
75543;BME280;64129;53.508;10.476;2022-10-18T07:06:15;102016.88;;;13.49;86.92
75543;BME280;64129;53.508;10.476;2022-10-18T07:08:40;102021.22;;;13.57;84.39
75543;BME280;64129;53.508;10.476;2022-10-18T07:11:07;102022.31;;;13.42;85.73
75543;BME280;64129;53.508;10.476;2022-10-18T07:13:33;102030.16;;;13.55;86.85
75543;BME280;64129;53.508;10.476;2022-10-18T07:16:06;102032.66;;;13.64;86.50
75543;BME280;64129;53.508;10.476;2022-10-18T07:18:36;102033.34;;;13.77;85.89
75543;BME280;64129;53.508;10.476;2022-10-18T07:21:11;102046.84;;;13.67;85.51
75543;BME280;64129;53.508;10.476;2022-10-18T07:23:39;102050.19;;;13.80;86.24
75543;BME280;64129;53.508;10.476;2022-10-18T07:28:41;102059.25;;;13.70;86.22
75543;BME280;64129;53.508;10.476;2022-10-18T07:31:08;102066.50;;;13.62;86.60
75543;BME280;64129;53.508;10.476;2022-10-18T07:33:34;102073.38;;;13.78;86.57
75543;BME280;64129;53.508;10.476;2022-10-18T07:36:00;102066.41;;;13.68;86.66
75543;BME280;64129;53.508;10.476;2022-10-18T07:38:27;102066.31;;;13.74;85.13
75543;BME280;64129;53.508;10.476;2022-10-18T07:40:56;102074.19;;;13.83;86.38
75543;BME280;64129;53.508;10.476;2022-10-18T07:43:22;102076.59;;;14.00;85.84
75543;BME280;64129;53.508;10.476;2022-10-18T07:45:58;102082.03;;;13.95;85.83
75543;BME280;64129;53.508;10.476;2022-10-18T07:48:25;102083.06;;;13.85;86.14
75543;BME280;64129;53.508;10.476;2022-10-18T07:50:51;102081.31;;;13.83;86.23
75543;BME280;64129;53.508;10.476;2022-10-18T07:53:16;102078.84;;;13.69;86.01
75543;BME280;64129;53.508;10.476;2022-10-18T07:55:42;102079.56;;;13.80;85.73
75543;BME280;64129;53.508;10.476;2022-10-18T07:58:09;102079.34;;;13.95;85.13
75543;BME280;64129;53.508;10.476;2022-10-18T08:00:34;102072.34;;;13.88;85.54
75543;BME280;64129;53.508;10.476;2022-10-18T08:02:59;102073.03;;;13.99;83.89
75543;BME280;64129;53.508;10.476;2022-10-18T08:05:26;102071.41;;;13.91;85.67
75543;BME280;64129;53.508;10.476;2022-10-18T08:07:52;102066.00;;;13.95;84.53
75543;BME280;64129;53.508;10.476;2022-10-18T08:10:18;102073.31;;;13.81;84.70
75543;BME280;64129;53.508;10.476;2022-10-18T08:12:44;102068.03;;;13.78;84.47
75543;BME280;64129;53.508;10.476;2022-10-18T08:15:10;102073.25;;;13.86;83.77
75543;BME280;64129;53.508;10.476;2022-10-18T08:17:35;102075.84;;;13.92;84.45
75543;BME280;64129;53.508;10.476;2022-10-18T08:20:00;102074.91;;;13.94;84.25
75543;BME280;64129;53.508;10.476;2022-10-18T08:22:26;102080.31;;;13.91;84.02
75543;BME280;64129;53.508;10.476;2022-10-18T08:24:51;102080.06;;;14.05;83.08
75543;BME280;64129;53.508;10.476;2022-10-18T08:27:16;102066.91;;;13.94;83.96
75543;BME280;64129;53.508;10.476;2022-10-18T08:29:42;102073.88;;;14.03;83.37
75543;BME280;64129;53.508;10.476;2022-10-18T08:32:07;102073.63;;;14.17;84.36
75543;BME280;64129;53.508;10.476;2022-10-18T08:34:33;102079.84;;;14.19;83.64
75543;BME280;64129;53.508;10.476;2022-10-18T08:36:59;102075.34;;;14.22;83.19
75543;BME280;64129;53.508;10.476;2022-10-18T08:39:24;102076.47;;;14.08;84.54
75543;BME280;64129;53.508;10.476;2022-10-18T08:44:44;102086.22;;;14.10;84.01
75543;BME280;64129;53.508;10.476;2022-10-18T08:47:14;102077.25;;;14.14;83.33
75543;BME280;64129;53.508;10.476;2022-10-18T08:49:55;102072.34;;;13.87;83.14
75543;BME280;64129;53.508;10.476;2022-10-18T08:52:52;102077.63;;;13.91;83.64
75543;BME280;64129;53.508;10.476;2022-10-18T08:55:26;102071.47;;;13.86;83.59
75543;BME280;64129;53.508;10.476;2022-10-18T08:57:56;102087.44;;;13.91;83.68
75543;BME280;64129;53.508;10.476;2022-10-18T09:00:23;102077.44;;;14.03;83.14
75543;BME280;64129;53.508;10.476;2022-10-18T09:03:00;102074.50;;;14.17;83.21
75543;BME280;64129;53.508;10.476;2022-10-18T09:05:48;102072.13;;;14.00;83.45
75543;BME280;64129;53.508;10.476;2022-10-18T09:11:19;102075.41;;;14.18;83.20
75543;BME280;64129;53.508;10.476;2022-10-18T09:16:45;102074.34;;;14.28;82.84
75543;BME280;64129;53.508;10.476;2022-10-18T09:19:42;102073.25;;;14.40;82.83
75543;BME280;64129;53.508;10.476;2022-10-18T09:22:15;102063.84;;;14.16;83.22
75543;BME280;64129;53.508;10.476;2022-10-18T09:27:31;102091.28;;;14.28;83.01
75543;BME280;64129;53.508;10.476;2022-10-18T09:30:09;102076.88;;;14.35;82.26
75543;BME280;64129;53.508;10.476;2022-10-18T09:35:24;102084.94;;;14.34;82.77
75543;BME280;64129;53.508;10.476;2022-10-18T09:37:57;102084.25;;;14.20;82.80
75543;BME280;64129;53.508;10.476;2022-10-18T09:40:27;102092.09;;;14.32;82.67
75543;BME280;64129;53.508;10.476;2022-10-18T09:45:29;102081.38;;;14.33;82.44
75543;BME280;64129;53.508;10.476;2022-10-18T09:48:09;102091.78;;;14.50;81.79
75543;BME280;64129;53.508;10.476;2022-10-18T09:50:50;102092.38;;;15.12;80.75
75543;BME280;64129;53.508;10.476;2022-10-18T09:56:09;102091.00;;;15.76;78.08
75543;BME280;64129;53.508;10.476;2022-10-18T09:58:46;102078.38;;;15.81;77.32
75543;BME280;64129;53.508;10.476;2022-10-18T10:01:39;102084.97;;;15.67;77.23
75543;BME280;64129;53.508;10.476;2022-10-18T10:04:04;102083.22;;;16.03;77.54
75543;BME280;64129;53.508;10.476;2022-10-18T10:06:31;102090.75;;;16.57;74.58
75543;BME280;64129;53.508;10.476;2022-10-18T10:09:13;102080.25;;;16.13;75.59
75543;BME280;64129;53.508;10.476;2022-10-18T10:11:47;102081.31;;;16.76;72.87
75543;BME280;64129;53.508;10.476;2022-10-18T10:14:26;102074.72;;;16.88;71.77
75543;BME280;64129;53.508;10.476;2022-10-18T10:16:53;102058.63;;;17.19;70.64
75543;BME280;64129;53.508;10.476;2022-10-18T10:19:34;102065.69;;;17.51;69.40
75543;BME280;64129;53.508;10.476;2022-10-18T10:22:05;102064.03;;;18.02;68.57
75543;BME280;64129;53.508;10.476;2022-10-18T10:24:36;102058.06;;;17.65;69.16
75543;BME280;64129;53.508;10.476;2022-10-18T10:27:14;102055.41;;;18.19;68.14
75543;BME280;64129;53.508;10.476;2022-10-18T10:32:11;102048.31;;;18.93;66.57
75543;BME280;64129;53.508;10.476;2022-10-18T10:34:37;102059.56;;;19.27;65.25
75543;BME280;64129;53.508;10.476;2022-10-18T10:40:13;102056.06;;;19.25;62.58
75543;BME280;64129;53.508;10.476;2022-10-18T10:43:19;102051.88;;;19.63;63.14
75543;BME280;64129;53.508;10.476;2022-10-18T10:46:12;102051.16;;;19.82;63.14
75543;BME280;64129;53.508;10.476;2022-10-18T10:48:48;102044.25;;;19.51;64.07
75543;BME280;64129;53.508;10.476;2022-10-18T10:51:16;102044.22;;;19.75;64.31
75543;BME280;64129;53.508;10.476;2022-10-18T10:53:46;102051.81;;;19.42;62.75
75543;BME280;64129;53.508;10.476;2022-10-18T10:56:20;102046.41;;;19.20;66.14
75543;BME280;64129;53.508;10.476;2022-10-18T10:58:46;102053.34;;;19.02;61.08
75543;BME280;64129;53.508;10.476;2022-10-18T11:01:21;102047.34;;;19.19;60.15
75543;BME280;64129;53.508;10.476;2022-10-18T11:03:51;102054.69;;;20.04;60.07
75543;BME280;64129;53.508;10.476;2022-10-18T11:09:12;102057.84;;;20.97;58.11
75543;BME280;64129;53.508;10.476;2022-10-18T11:11:43;102053.47;;;21.13;55.86
75543;BME280;64129;53.508;10.476;2022-10-18T11:14:24;102049.81;;;21.34;56.98
75543;BME280;64129;53.508;10.476;2022-10-18T11:19:37;102059.38;;;20.83;53.38
75543;BME280;64129;53.508;10.476;2022-10-18T11:22:08;102047.22;;;20.11;60.15
75543;BME280;64129;53.508;10.476;2022-10-18T11:24:36;102054.81;;;19.57;58.64
75543;BME280;64129;53.508;10.476;2022-10-18T11:27:13;102061.91;;;20.04;54.60
75543;BME280;64129;53.508;10.476;2022-10-18T11:30:13;102062.66;;;20.70;54.02
75543;BME280;64129;53.508;10.476;2022-10-18T11:32:50;102064.41;;;20.71;53.10
75543;BME280;64129;53.508;10.476;2022-10-18T11:38:04;102069.03;;;20.27;52.52
75543;BME280;64129;53.508;10.476;2022-10-18T11:43:25;102068.22;;;20.87;51.55
75543;BME280;64129;53.508;10.476;2022-10-18T11:46:00;102063.03;;;21.40;51.74
75543;BME280;64129;53.508;10.476;2022-10-18T11:51:32;102064.88;;;20.80;50.10
75543;BME280;64129;53.508;10.476;2022-10-18T11:59:07;102076.75;;;20.97;48.95
75543;BME280;64129;53.508;10.476;2022-10-18T12:04:46;102071.66;;;20.50;50.80
75543;BME280;64129;53.508;10.476;2022-10-18T12:07:16;102075.28;;;20.90;51.43
75543;BME280;64129;53.508;10.476;2022-10-18T12:09:45;102070.78;;;21.09;49.67
75543;BME280;64129;53.508;10.476;2022-10-18T12:12:19;102074.19;;;20.73;50.83
75543;BME280;64129;53.508;10.476;2022-10-18T12:14:53;102079.59;;;19.89;50.11
75543;BME280;64129;53.508;10.476;2022-10-18T12:17:34;102085.91;;;19.66;52.48
75543;BME280;64129;53.508;10.476;2022-10-18T12:20:05;102096.63;;;20.55;49.79
75543;BME280;64129;53.508;10.476;2022-10-18T12:22:35;102074.50;;;19.36;52.63
75543;BME280;64129;53.508;10.476;2022-10-18T12:25:03;102082.47;;;20.50;50.75
75543;BME280;64129;53.508;10.476;2022-10-18T12:33:20;102071.41;;;21.72;48.94
75543;BME280;64129;53.508;10.476;2022-10-18T12:36:25;102063.78;;;21.80;48.30
75543;BME280;64129;53.508;10.476;2022-10-18T12:38:58;102071.81;;;22.00;45.50
75543;BME280;64129;53.508;10.476;2022-10-18T12:41:30;102067.88;;;22.07;43.83
75543;BME280;64129;53.508;10.476;2022-10-18T12:44:01;102069.66;;;22.60;43.51
75543;BME280;64129;53.508;10.476;2022-10-18T12:46:42;102070.22;;;21.96;45.14
75543;BME280;64129;53.508;10.476;2022-10-18T12:49:10;102071.06;;;22.85;43.12
75543;BME280;64129;53.508;10.476;2022-10-18T12:51:49;102074.44;;;22.21;46.33
75543;BME280;64129;53.508;10.476;2022-10-18T12:54:19;102064.88;;;22.65;44.78
75543;BME280;64129;53.508;10.476;2022-10-18T12:56:45;102061.03;;;22.69;43.35
75543;BME280;64129;53.508;10.476;2022-10-18T13:04:32;102072.22;;;22.29;42.92
75543;BME280;64129;53.508;10.476;2022-10-18T13:09:40;102068.38;;;22.50;41.59
75543;BME280;64129;53.508;10.476;2022-10-18T13:25:53;102065.16;;;23.60;40.67
75543;BME280;64129;53.508;10.476;2022-10-18T13:33:41;102078.97;;;22.89;40.00
75543;BME280;64129;53.508;10.476;2022-10-18T13:41:27;102084.22;;;23.74;39.60
75543;BME280;64129;53.508;10.476;2022-10-18T13:49:04;102066.00;;;23.76;39.34
75543;BME280;64129;53.508;10.476;2022-10-18T13:54:53;102061.00;;;23.04;40.27
75543;BME280;64129;53.508;10.476;2022-10-18T13:57:38;102058.75;;;23.12;41.30
75543;BME280;64129;53.508;10.476;2022-10-18T14:00:46;102064.75;;;23.34;40.29
75543;BME280;64129;53.508;10.476;2022-10-18T14:08:37;102064.69;;;23.03;41.54
75543;BME280;64129;53.508;10.476;2022-10-18T14:11:13;102072.75;;;21.99;42.79
75543;BME280;64129;53.508;10.476;2022-10-18T14:16:37;102073.91;;;21.76;42.18
75543;BME280;64129;53.508;10.476;2022-10-18T14:19:13;102070.00;;;20.46;45.72
75543;BME280;64129;53.508;10.476;2022-10-18T14:21:46;102071.81;;;20.03;47.50
75543;BME280;64129;53.508;10.476;2022-10-18T14:24:22;102073.28;;;22.07;45.41
75543;BME280;64129;53.508;10.476;2022-10-18T14:27:18;102079.56;;;22.08;43.22
75543;BME280;64129;53.508;10.476;2022-10-18T14:29:44;102075.53;;;21.62;44.77
75543;BME280;64129;53.508;10.476;2022-10-18T14:32:17;102077.38;;;21.97;43.17
75543;BME280;64129;53.508;10.476;2022-10-18T14:34:45;102075.28;;;22.73;45.04
75543;BME280;64129;53.508;10.476;2022-10-18T14:37:37;102078.44;;;21.76;43.77
75543;BME280;64129;53.508;10.476;2022-10-18T14:40:03;102075.19;;;23.09;42.76
75543;BME280;64129;53.508;10.476;2022-10-18T14:42:28;102071.78;;;22.54;42.99
75543;BME280;64129;53.508;10.476;2022-10-18T14:44:54;102073.25;;;21.34;44.91
75543;BME280;64129;53.508;10.476;2022-10-18T14:47:25;102078.84;;;20.07;47.51
75543;BME280;64129;53.508;10.476;2022-10-18T14:49:51;102080.03;;;20.64;48.09
75543;BME280;64129;53.508;10.476;2022-10-18T14:52:29;102085.16;;;19.39;49.80
75543;BME280;64129;53.508;10.476;2022-10-18T14:54:56;102075.66;;;19.06;49.57
75543;BME280;64129;53.508;10.476;2022-10-18T14:57:25;102078.88;;;18.67;50.02